Pagina principale
METAR-TAF:

METAR-TAF

Aeroporti :

Aeroporto di Ginevra-Cointrin

Ginevra, Svizzera

latitudine: 46-15N, longitudine: 006-08E, altezza: 420 m

Osservazione

Il bollettino è stato emesso 19 minuti fa, alle 09:50 UTC
Vento 3 kt da direzioni variabili
Temperature 6°C
Umidità 61%
Pressione 1017 hPa
Visibilità 10 km o più
Poco nuvoloso ad un'altezza di 3000 ft

METAR: LSGG 090950Z VRB03KT 9999 FEW030 06/M01 Q1017 NOSIG

Ora: 11:09 (10:09 UTC)

Previsione

Il bollettino è stato emesso 1 ora e 44 minuti fa, alle 08:25 UTC
Previsione valida dal 09 alle 09 UTC al 10 alle 15 UTC
Vento 2 kt da direzioni variabili
Visibilità 10 km o più
nessuna nube inferiore a 1500 m e nessun cumulonembo
Probabilità 30% :
Temporaneamente
dal 09 alle 15 UTC al 09 alle 18 UTC
Vento 12 kt da nord/nord-ovest

TAF: LSGG 090825Z 0909/1015 VRB02KT CAVOK TX09/0915Z TNM02/1006Z TX11/1015Z PROB30 TEMPO 0915/0918 33012KT

Osservazioni e previsioni meteorologiche di più di 4000 aeroporti (messaggi METAR e TAF).

Le stazioni disponibili sono rappresentate dai dischi gialli e rossi sulla carta.

Puntare il mouse per vedere il nome della stazione.

Clicca sopra per visualizzare le osservazioni e previsioni meteorologiche.

Per cambiare la mappa : fare clic sui pulsanti verdi con una croce nera per ingrandire, il pulsante verde con un trattino per diminuire, o sulla freccia verde per le mappe adiacenti.


METAR-TAF: